Bei Facebook empfehlenBei Twitter postenGoogle plusPinterest

Das Wetter im Erzgebirge am 13.08.2015

Wetter und Klima am 13.08.2015 Holzhau im Erzgebirge (630m ü.NN)
Letzte gemessene Temperatur und Uhrzeit der Messung23:45:00 Uhr22.20 °C
Temperatur (Maximum / Höchstwert) und Uhrzeit der Messung15:00:00 Uhr32.90 °C
Temperatur (Minimum / Tiefstwert) und Uhrzeit der Messung04:45:0015.60 °C
Errechneter Absolutwert der Temperaturschwankungen zwischen Tmin und Tmax des Tages17.30 K
Errechnete Tagesmitteltemperatur23.99896 °C
Gesamt - Niederschlag des Tages (in flüssiger Form)0.00 Liter / m²
Luftdruck (Maximum / Höchstwert) und Zeitpunkt der Messung00:15:00 Uhr1020.70 hPa
Luftdruck (Minimum / Tiefstwert) und Zeitpunkt der Messung23:45:00 Uhr1014.70 hPa
Errechneter Absolutwert der Luftdruckschwankungen des Tages6.00 hPa
Höchste gemessene Windgeschwindigkeit und Uhrzeit der Messung23:45:00 Uhr0.00 km/h
Errechnete Windhäufigkeit in Relation zu den Messwerten des Tages0.00000 %
Niedrigste Windkühle (Windchill) und Zeitpunkt der Messung04:45:00 Uhr15.60 °C
Taupunkt (Maximum / Höchstwert) und Uhrzeit der Messung09:45:00 Uhr19.40 °C
Taupunkt (Minimum / Tiefstwert) und Uhrzeit der Messung04:45:0013.60 °C
Anzahl der automatisch eingelesenen Messwerte 96

Detaillierte Wetter- und Klima- Messwerte für den 13.08.2015 in Holzhau im Erzgebirge (630m ü.NN)
ZeitTemperaturLuftdruckRel. LuftfeuchteWindWindrichtungWindchillTaupunktNiederschlag l/m²
23:45:0022.20 °C1014.70 hPa68.00 %16.00 °C 
23:30:0022.10 °C1015.00 hPa69.00 %16.10 °C 
23:15:0022.10 °C1015.00 hPa69.00 %16.10 °C 
23:00:0021.90 °C1015.10 hPa69.00 %16.00 °C 
22:45:0022.10 °C1015.10 hPa68.00 %15.90 °C 
22:30:0022.20 °C1015.20 hPa68.00 %16.00 °C 
22:15:0022.30 °C1015.20 hPa68.00 %16.10 °C 
22:00:0022.60 °C1015.10 hPa67.00 %16.20 °C 
21:45:0022.90 °C1015.30 hPa66.00 %16.20 °C 
21:30:0023.10 °C1015.40 hPa65.00 %16.20 °C 
21:15:0023.50 °C1015.40 hPa64.00 %16.30 °C 
21:00:0024.00 °C1015.50 hPa63.00 %16.50 °C 
20:45:0024.60 °C1015.40 hPa61.00 %16.60 °C 
20:30:0025.20 °C1015.20 hPa60.00 %16.90 °C 
20:15:0025.90 °C1015.30 hPa58.00 %17.00 °C 
20:00:0026.70 °C1015.40 hPa56.00 %17.20 °C 
19:45:0027.40 °C1015.30 hPa54.00 %17.30 °C 
19:30:0028.10 °C1015.80 hPa52.00 %17.30 °C 
19:15:0028.60 °C1015.80 hPa51.00 %17.50 °C 
19:00:0029.10 °C1015.80 hPa49.00 %17.30 °C 
18:45:0029.60 °C1015.80 hPa48.00 %17.40 °C 
18:30:0030.10 °C1015.90 hPa46.00 %17.20 °C 
18:15:0030.10 °C1016.10 hPa46.00 %17.20 °C 
18:00:0029.90 °C1016.20 hPa46.00 %17.00 °C 
17:45:0030.60 °C1016.30 hPa44.00 %17.00 °C 
17:30:0031.40 °C1016.40 hPa43.00 %17.30 °C 
17:15:0031.20 °C1016.50 hPa44.00 %17.50 °C 
17:00:0030.50 °C1016.40 hPa46.00 %17.60 °C 
16:45:0030.30 °C1016.60 hPa46.00 %17.40 °C 
16:30:0030.70 °C1016.70 hPa46.00 %17.70 °C 
16:15:0030.40 °C1016.80 hPa47.00 %17.80 °C 
16:00:0030.60 °C1017.00 hPa47.00 %18.00 °C 
15:45:0031.70 °C1017.10 hPa46.00 %18.70 °C 
15:30:0032.20 °C1017.20 hPa46.00 %19.10 °C 
15:15:0032.80 °C1017.30 hPa44.00 %18.90 °C 
15:00:0032.90 °C1017.50 hPa42.00 %18.30 °C 
14:45:0032.60 °C1017.60 hPa43.00 %18.40 °C 
14:30:0032.00 °C1017.80 hPa45.00 %18.60 °C 
14:15:0031.60 °C1017.90 hPa46.00 %18.60 °C 
14:00:0031.60 °C1018.00 hPa46.00 %18.60 °C 
13:45:0031.80 °C1018.10 hPa46.00 %18.70 °C 
13:30:0030.90 °C1018.30 hPa48.00 %18.60 °C 
13:15:0030.20 °C1018.30 hPa48.00 %18.00 °C 
13:00:0030.30 °C1018.40 hPa48.00 %18.10 °C 
12:45:0029.90 °C1018.30 hPa49.00 %18.00 °C 
12:30:0029.80 °C1018.70 hPa48.00 %17.60 °C 
12:15:0029.70 °C1018.50 hPa50.00 %18.20 °C 
12:00:0029.50 °C1018.70 hPa50.00 %18.00 °C 
11:45:0029.40 °C1018.80 hPa52.00 %18.50 °C 
11:30:0028.80 °C1018.80 hPa55.00 %18.90 °C 
11:15:0028.30 °C1018.80 hPa56.00 %18.70 °C 
11:00:0027.80 °C1018.90 hPa59.00 %19.10 °C 
10:45:0027.30 °C1019.20 hPa60.00 %18.90 °C 
10:30:0027.30 °C1019.00 hPa61.00 %19.10 °C 
10:15:0027.10 °C1019.10 hPa61.00 %18.90 °C 
10:00:0026.60 °C1018.90 hPa63.00 %19.00 °C 
09:45:0026.00 °C1019.00 hPa67.00 %19.40 °C 
09:30:0025.30 °C1019.00 hPa70.00 %19.40 °C 
09:15:0024.50 °C1019.00 hPa73.00 %19.30 °C 
09:00:0023.80 °C1019.10 hPa76.00 %19.30 °C 
08:45:0023.10 °C1019.10 hPa77.00 %18.80 °C 
08:30:0022.40 °C1019.10 hPa80.00 %18.80 °C 
08:15:0021.60 °C1019.30 hPa83.00 %18.60 °C 
08:00:0020.80 °C1019.30 hPa86.00 %18.40 °C 
07:45:0019.90 °C1019.20 hPa89.00 %18.00 °C 
07:30:0018.90 °C1019.30 hPa90.00 %17.20 °C 
07:15:0017.90 °C1019.20 hPa91.00 %16.40 °C 
07:00:0017.60 °C1019.30 hPa91.00 %16.10 °C 
06:45:0017.10 °C1019.10 hPa90.00 %15.40 °C 
06:30:0016.70 °C1019.40 hPa90.00 %15.10 °C 
06:15:0016.60 °C1019.30 hPa90.00 %15.00 °C 
06:00:0016.80 °C1019.40 hPa90.00 %15.20 °C 
05:45:0016.90 °C1019.40 hPa90.00 %15.20 °C 
05:30:0016.80 °C1019.30 hPa90.00 %15.20 °C 
05:15:0016.60 °C1019.50 hPa90.00 %15.00 °C 
05:00:0016.20 °C1019.50 hPa89.00 %14.40 °C 
04:45:0015.60 °C1019.40 hPa88.00 %13.60 °C 
04:30:0015.70 °C1019.60 hPa88.00 %13.70 °C 
04:15:0015.90 °C1019.80 hPa88.00 %13.90 °C 
04:00:0016.10 °C1019.60 hPa88.00 %14.10 °C 
03:45:0015.90 °C1019.60 hPa87.00 %13.70 °C 
03:30:0015.90 °C1019.60 hPa87.00 %13.70 °C 
03:15:0016.10 °C1019.80 hPa86.00 %13.80 °C 
03:00:0016.30 °C1019.80 hPa85.00 %13.80 °C 
02:45:0016.60 °C1019.90 hPa85.00 %14.10 °C 
02:30:0016.80 °C1020.10 hPa85.00 %14.30 °C 
02:15:0016.90 °C1020.10 hPa84.00 %14.20 °C 
02:00:0017.00 °C1020.20 hPa84.00 %14.30 °C 
01:45:0017.20 °C1020.20 hPa83.00 %14.30 °C 
01:30:0017.50 °C1020.40 hPa82.00 %14.40 °C 
01:15:0017.60 °C1020.30 hPa82.00 %14.50 °C 
01:00:0017.60 °C1020.30 hPa82.00 %14.50 °C 
00:45:0017.40 °C1020.40 hPa82.00 %14.30 °C 
00:30:0017.30 °C1020.60 hPa82.00 %14.20 °C 
00:15:0017.40 °C1020.70 hPa80.00 %13.90 °C 
00:00:0017.50 °C1020.70 hPa80.00 %14.00 °C 

Permanenter Link zu dieser Seite: Wetter im Erzgebirge am 13.08.2015
Performance-Info: Die Erstellung der Seite / Statistik(en) / Tabelle(n) erforderte 5 Datenbankserver-Abfrage(n) und dauerte 104 Millisekunden. (Dieser Messwert ist von der Gesamt-Auslastung des Servers abhängig.)
Erzgebirge - Wetter | Erzgebirge - Wetter (Mobilgeräte) | Komplette Klimadatenbank